createdAt,value
2023-01-07T00:01:24.013Z,96986.81
2023-01-07T00:03:52.082Z,96973.00
2023-01-07T00:06:27.456Z,96975.25
2023-01-07T00:08:56.819Z,96969.06
2023-01-07T00:11:29.025Z,96969.28
2023-01-07T00:13:57.441Z,96969.78
2023-01-07T00:16:26.815Z,96960.97
2023-01-07T00:18:55.090Z,96960.06
2023-01-07T00:21:23.091Z,96958.59
2023-01-07T00:23:53.187Z,96955.63
2023-01-07T00:26:21.129Z,96953.69
2023-01-07T00:28:49.516Z,96946.31
2023-01-07T00:31:17.330Z,96946.31
2023-01-07T00:34:07.206Z,96947.72
2023-01-07T00:36:37.320Z,96943.22
2023-01-07T00:39:16.356Z,96944.84
2023-01-07T00:42:03.407Z,96939.94
2023-01-07T00:44:30.182Z,96939.31
2023-01-07T00:46:57.921Z,96934.38
2023-01-07T00:49:25.496Z,96933.50
2023-01-07T00:51:54.557Z,96922.72
2023-01-07T00:54:21.063Z,96925.22
2023-01-07T00:56:47.599Z,96925.16
2023-01-07T00:59:14.135Z,96922.06
2023-01-07T01:01:40.736Z,96927.00
2023-01-07T01:04:08.262Z,96921.69
2023-01-07T01:06:35.557Z,96926.25
2023-01-07T01:09:02.121Z,96916.22
2023-01-07T01:11:28.666Z,96923.75
2023-01-07T01:13:55.208Z,96914.16
2023-01-07T01:16:22.160Z,96918.06
2023-01-07T01:18:48.923Z,96923.88
2023-01-07T01:21:17.171Z,96921.94
2023-01-07T01:23:43.907Z,96918.41
2023-01-07T01:26:13.315Z,96913.25
2023-01-07T01:28:39.931Z,96919.44
2023-01-07T01:31:08.462Z,96918.84
2023-01-07T01:33:35.638Z,96917.53
2023-01-07T01:36:08.265Z,96910.00
2023-01-07T01:38:35.888Z,96916.56
2023-01-07T01:41:02.447Z,96920.09
2023-01-07T01:43:35.748Z,96923.63
2023-01-07T01:46:06.821Z,96919.84
2023-01-07T01:48:36.097Z,96918.81
2023-01-07T01:51:03.896Z,96923.00
2023-01-07T01:53:33.802Z,96912.78
2023-01-07T01:56:18.032Z,96917.16
2023-01-07T01:58:55.406Z,96922.94
2023-01-07T02:01:22.247Z,96916.56
2023-01-07T02:03:49.758Z,96914.88
2023-01-07T02:06:23.998Z,96909.09
2023-01-07T02:08:50.991Z,96912.16
2023-01-07T02:11:24.100Z,96908.41
2023-01-07T02:14:19.929Z,96901.72
2023-01-07T02:16:52.160Z,96898.91
2023-01-07T02:19:21.365Z,96895.09
2023-01-07T02:22:11.855Z,96892.13
2023-01-07T02:24:59.973Z,96892.56
2023-01-07T02:27:47.771Z,96885.81
2023-01-07T02:30:23.821Z,96878.56
2023-01-07T02:33:09.085Z,96875.38
2023-01-07T02:35:54.523Z,96865.91
2023-01-07T02:38:20.953Z,96872.41
2023-01-07T02:40:56.671Z,96863.69
2023-01-07T02:43:34.500Z,96869.53
2023-01-07T02:46:21.916Z,96868.78
2023-01-07T02:48:48.804Z,96866.19
2023-01-07T02:51:15.764Z,96857.38
2023-01-07T02:53:45.738Z,96849.47
2023-01-07T02:56:45.277Z,96848.81
2023-01-07T02:59:23.158Z,96843.41
2023-01-07T03:02:11.323Z,96842.38
2023-01-07T03:04:38.335Z,96839.56
2023-01-07T03:07:13.665Z,96840.97
2023-01-07T03:09:49.736Z,96839.81
2023-01-07T03:12:38.145Z,96830.75
2023-01-07T03:15:24.476Z,96818.09
2023-01-07T03:18:04.468Z,96822.97
2023-01-07T03:20:34.616Z,96821.19
2023-01-07T03:23:05.401Z,96815.03
2023-01-07T03:25:35.373Z,96814.19
2023-01-07T03:28:03.978Z,96812.06
2023-01-07T03:30:31.304Z,96806.41
2023-01-07T03:33:02.659Z,96810.13
2023-01-07T03:35:31.965Z,96810.00
2023-01-07T03:38:01.935Z,96803.06
2023-01-07T03:40:28.636Z,96805.00
2023-01-07T03:42:55.333Z,96798.06
2023-01-07T03:45:24.689Z,96802.78
2023-01-07T03:47:53.678Z,96804.41
2023-01-07T03:50:20.565Z,96793.03
2023-01-07T03:52:51.214Z,96794.66
2023-01-07T03:55:18.442Z,96793.19
2023-01-07T03:57:45.098Z,96791.13
2023-01-07T04:00:13.595Z,96789.56
2023-01-07T04:02:40.376Z,96788.03
2023-01-07T04:05:07.441Z,96786.94
2023-01-07T04:07:34.179Z,96781.53
2023-01-07T04:10:01.167Z,96773.88
2023-01-07T04:12:27.886Z,96769.44
2023-01-07T04:14:56.310Z,96768.50
2023-01-07T04:17:23.779Z,96769.00
2023-01-07T04:19:50.616Z,96770.88
2023-01-07T04:22:17.581Z,96775.06
2023-01-07T04:24:44.099Z,96770.03
2023-01-07T04:27:10.957Z,96770.34
2023-01-07T04:29:37.986Z,96759.81
2023-01-07T04:32:05.485Z,96757.00
2023-01-07T04:34:31.995Z,96759.44
2023-01-07T04:36:58.935Z,96758.13
2023-01-07T04:39:25.406Z,96762.97
2023-01-07T04:41:51.981Z,96755.22
2023-01-07T04:44:18.726Z,96758.44
2023-01-07T04:46:45.254Z,96763.78
2023-01-07T04:49:12.227Z,96760.38
2023-01-07T04:51:38.795Z,96758.34
2023-01-07T04:54:05.596Z,96758.09
2023-01-07T04:56:32.122Z,96756.94
2023-01-07T04:58:58.551Z,96762.69
2023-01-07T05:01:25.588Z,96760.75
2023-01-07T05:03:52.222Z,96745.72
2023-01-07T05:06:19.034Z,96746.69
2023-01-07T05:08:45.771Z,96735.91
2023-01-07T05:11:12.569Z,96753.16
2023-01-07T05:13:38.997Z,96753.03
2023-01-07T05:16:08.084Z,96748.16
2023-01-07T05:18:34.548Z,96747.63
2023-01-07T05:21:00.996Z,96752.94
2023-01-07T05:23:27.488Z,96737.81
2023-01-07T05:25:54.053Z,96743.63
2023-01-07T05:28:20.758Z,96737.41
2023-01-07T05:30:47.905Z,96738.44
2023-01-07T05:33:14.697Z,96728.03
2023-01-07T05:35:41.171Z,96730.25
2023-01-07T05:38:07.586Z,96730.47
2023-01-07T05:40:34.171Z,96725.16
2023-01-07T05:43:01.132Z,96722.88
2023-01-07T05:45:27.565Z,96724.19
2023-01-07T05:47:54.051Z,96719.19
2023-01-07T05:50:20.498Z,96720.94
2023-01-07T05:52:47.558Z,96714.16
2023-01-07T05:55:14.124Z,96710.56
2023-01-07T05:57:40.648Z,96707.81
2023-01-07T06:00:10.398Z,96704.50
2023-01-07T06:02:37.294Z,96705.16
2023-01-07T06:05:04.588Z,96697.34
2023-01-07T06:07:31.127Z,96698.38
2023-01-07T06:09:57.691Z,96692.69
2023-01-07T06:12:24.533Z,96707.38
2023-01-07T06:14:51.056Z,96707.22
2023-01-07T06:17:17.763Z,96703.19
2023-01-07T06:19:44.467Z,96700.59
2023-01-07T06:22:11.208Z,96703.56
2023-01-07T06:24:38.128Z,96707.97
2023-01-07T06:27:04.956Z,96707.72
2023-01-07T06:29:31.691Z,96715.94
2023-01-07T06:31:58.734Z,96712.69
2023-01-07T06:34:25.473Z,96707.47
2023-01-07T06:36:52.002Z,96711.66
2023-01-07T06:39:18.561Z,96703.13
2023-01-07T06:41:45.095Z,96706.59
2023-01-07T06:44:11.638Z,96706.22
2023-01-07T06:46:38.206Z,96699.06
2023-01-07T06:49:04.870Z,96713.13
2023-01-07T06:51:31.397Z,96706.78
2023-01-07T06:53:58.519Z,96710.31
2023-01-07T06:56:25.549Z,96707.38
2023-01-07T06:58:52.128Z,96696.84
2023-01-07T07:01:19.094Z,96704.97
2023-01-07T07:03:45.785Z,96703.69
2023-01-07T07:06:12.423Z,96689.84
2023-01-07T07:08:39.015Z,96704.22
2023-01-07T07:11:06.838Z,96689.25
2023-01-07T07:13:33.432Z,96706.44
2023-01-07T07:16:00.269Z,96699.44
2023-01-07T07:18:27.561Z,96705.63
2023-01-07T07:20:54.853Z,96705.63
2023-01-07T07:23:21.761Z,96689.38
2023-01-07T07:25:48.796Z,96702.81
2023-01-07T07:28:15.393Z,96703.25
2023-01-07T07:30:47.291Z,96697.34
2023-01-07T07:33:18.979Z,96700.53
2023-01-07T07:35:46.832Z,96695.34
2023-01-07T07:38:13.872Z,96697.94
2023-01-07T07:40:41.485Z,96699.22
2023-01-07T07:43:10.169Z,96695.09
2023-01-07T07:45:40.181Z,96695.84
2023-01-07T07:48:08.103Z,96688.59
2023-01-07T07:50:35.692Z,96699.84
2023-01-07T07:53:02.335Z,96698.19
2023-01-07T07:55:28.825Z,96696.50
2023-01-07T07:57:57.082Z,96684.56
2023-01-07T08:00:24.240Z,96694.56
2023-01-07T08:02:50.761Z,96694.13
2023-01-07T08:05:17.469Z,96697.34
2023-01-07T08:07:44.000Z,96682.25
2023-01-07T08:10:10.689Z,96688.69
2023-01-07T08:12:38.435Z,96696.19
2023-01-07T08:15:07.049Z,96690.72
2023-01-07T08:17:33.690Z,96684.69
2023-01-07T08:20:00.486Z,96685.81
2023-01-07T08:22:27.557Z,96687.19
2023-01-07T08:24:54.345Z,96680.66
2023-01-07T08:27:21.212Z,96680.88
2023-01-07T08:29:47.819Z,96673.72
2023-01-07T08:32:14.685Z,96679.16
2023-01-07T08:34:41.255Z,96678.06
2023-01-07T08:37:07.807Z,96676.00
2023-01-07T08:39:34.260Z,96679.09
2023-01-07T08:42:00.770Z,96668.94
2023-01-07T08:44:27.242Z,96679.81
2023-01-07T08:46:54.428Z,96672.25
2023-01-07T08:49:21.439Z,96672.16
2023-01-07T08:51:48.329Z,96667.59
2023-01-07T08:54:15.467Z,96678.63
2023-01-07T08:56:42.284Z,96668.84
2023-01-07T08:59:08.995Z,96669.22
2023-01-07T09:01:35.667Z,96682.25
2023-01-07T09:04:02.252Z,96666.53
2023-01-07T09:06:28.675Z,96671.59
2023-01-07T09:08:55.134Z,96661.34
2023-01-07T09:11:21.775Z,96670.75
2023-01-07T09:13:48.266Z,96670.97
2023-01-07T09:16:14.912Z,96662.38
2023-01-07T09:18:41.461Z,96673.44
2023-01-07T09:21:08.030Z,96669.25
2023-01-07T09:23:34.568Z,96661.53
2023-01-07T09:26:01.371Z,96665.75
2023-01-07T09:28:31.958Z,96674.97
2023-01-07T09:30:59.973Z,96667.28
2023-01-07T09:33:26.485Z,96674.50
2023-01-07T09:35:52.921Z,96674.56
2023-01-07T09:38:19.478Z,96682.09
2023-01-07T09:40:46.091Z,96673.44
2023-01-07T09:43:58.692Z,96675.50
2023-01-07T09:46:18.336Z,96666.38
2023-01-07T09:48:54.071Z,96671.50
2023-01-07T09:51:31.679Z,96660.44
2023-01-07T09:54:01.626Z,96659.47
2023-01-07T09:56:33.444Z,96654.81
2023-01-07T09:59:01.739Z,96647.66
2023-01-07T10:01:50.724Z,96643.00
2023-01-07T10:04:35.560Z,96635.97
2023-01-07T10:07:24.308Z,96649.25
2023-01-07T10:10:03.856Z,96644.16
2023-01-07T10:12:39.932Z,96642.41
2023-01-07T10:15:22.255Z,96647.53
2023-01-07T10:17:51.544Z,96627.63
2023-01-07T10:20:46.496Z,96629.31
2023-01-07T10:23:15.879Z,96621.25
2023-01-07T10:25:51.407Z,96621.34
2023-01-07T10:28:20.346Z,96625.34
2023-01-07T10:30:53.510Z,96609.19
2023-01-07T10:33:32.756Z,96595.22
2023-01-07T10:36:17.668Z,96590.28
2023-01-07T10:38:50.848Z,96584.09
2023-01-07T10:41:25.938Z,96587.63
2023-01-07T10:44:23.468Z,96590.06
2023-01-07T10:47:34.394Z,96582.50
2023-01-07T10:50:20.703Z,96578.97
2023-01-07T10:53:14.172Z,96573.94
2023-01-07T10:56:05.167Z,96578.97
2023-01-07T10:58:38.810Z,96568.75
2023-01-07T11:01:07.495Z,96575.91
2023-01-07T11:03:34.339Z,96576.13
2023-01-07T11:06:06.846Z,96572.81
2023-01-07T11:08:39.301Z,96550.25
2023-01-07T11:11:07.510Z,96571.41
2023-01-07T11:13:37.869Z,96564.34
2023-01-07T11:16:10.340Z,96559.56
2023-01-07T11:18:57.678Z,96567.19
2023-01-07T11:21:43.416Z,96563.66
2023-01-07T11:24:19.621Z,96569.88
2023-01-07T11:26:49.106Z,96568.72
2023-01-07T11:29:41.394Z,96548.44
2023-01-07T11:32:20.227Z,96551.28
2023-01-07T11:34:56.433Z,96546.88
2023-01-07T11:37:32.195Z,96544.84
2023-01-07T11:40:01.039Z,96532.75
2023-01-07T11:42:39.631Z,96529.75
2023-01-07T11:45:35.804Z,96527.28
2023-01-07T11:48:05.659Z,96522.47
2023-01-07T11:50:37.915Z,96503.91
2023-01-07T11:53:30.001Z,96498.16
2023-01-07T11:55:57.059Z,96501.94
2023-01-07T11:58:28.711Z,96486.03
2023-01-07T12:01:14.030Z,96476.25
2023-01-07T12:03:43.907Z,96480.22
2023-01-07T12:06:31.222Z,96468.28
2023-01-07T12:09:10.245Z,96464.41
2023-01-07T12:11:41.923Z,96454.72
2023-01-07T12:14:28.584Z,96429.31
2023-01-07T12:16:57.300Z,96432.13
2023-01-07T12:19:51.714Z,96416.16
2023-01-07T12:22:31.001Z,96408.31
2023-01-07T12:25:22.250Z,96389.63
2023-01-07T12:27:54.520Z,96383.84
2023-01-07T12:30:55.522Z,96361.47
2023-01-07T12:33:47.539Z,96347.31
2023-01-07T12:36:43.272Z,96350.31
2023-01-07T12:39:25.818Z,96349.78
2023-01-07T12:42:01.763Z,96330.25
2023-01-07T12:44:28.415Z,96326.81
2023-01-07T12:47:30.479Z,96319.69
2023-01-07T12:50:13.333Z,96311.06
2023-01-07T12:52:52.028Z,96311.28
2023-01-07T12:55:23.259Z,96295.75
2023-01-07T12:58:07.725Z,96288.28
2023-01-07T13:00:44.222Z,96272.53
2023-01-07T13:03:17.881Z,96292.13
2023-01-07T13:05:59.694Z,96267.19
2023-01-07T13:08:42.781Z,96271.47
2023-01-07T13:11:44.690Z,96254.06
2023-01-07T13:14:22.049Z,96261.09
2023-01-07T13:16:49.289Z,96268.00
2023-01-07T13:19:15.739Z,96269.28
2023-01-07T13:21:45.079Z,96264.13
2023-01-07T13:24:15.004Z,96255.47
2023-01-07T13:27:11.705Z,96273.28
2023-01-07T13:30:21.242Z,96264.22
2023-01-07T13:33:34.201Z,96265.16
2023-01-07T13:36:00.719Z,96261.38
2023-01-07T13:39:01.660Z,96290.56
2023-01-07T13:41:47.121Z,96288.66
2023-01-07T13:44:26.189Z,96299.06
2023-01-07T13:46:52.982Z,96305.03
2023-01-07T13:49:29.086Z,96309.16
2023-01-07T13:52:11.414Z,96321.00
2023-01-07T13:54:50.528Z,96320.56
2023-01-07T13:57:37.233Z,96322.44
2023-01-07T14:00:07.025Z,96311.69
2023-01-07T14:02:56.232Z,96325.72
2023-01-07T14:05:25.399Z,96309.84
2023-01-07T14:07:55.179Z,96321.69
2023-01-07T14:10:32.396Z,96316.22
2023-01-07T14:13:32.321Z,96311.84
2023-01-07T14:16:14.107Z,96313.22
2023-01-07T14:18:55.862Z,96315.47
2023-01-07T14:21:49.440Z,96313.31
2023-01-07T14:24:21.418Z,96326.47
2023-01-07T14:26:47.990Z,96325.38
2023-01-07T14:29:26.846Z,96331.09
2023-01-07T14:32:21.435Z,96331.63
2023-01-07T14:35:11.335Z,96323.53
2023-01-07T14:37:39.036Z,96330.06
2023-01-07T14:40:30.752Z,96333.59
2023-01-07T14:42:58.311Z,96330.91
2023-01-07T14:45:37.035Z,96337.50
2023-01-07T14:48:09.913Z,96334.34
2023-01-07T14:50:50.814Z,96337.13
2023-01-07T14:53:36.750Z,96331.38
2023-01-07T14:56:31.593Z,96325.63
2023-01-07T14:59:42.630Z,96316.41
2023-01-07T15:02:46.482Z,96314.06
2023-01-07T15:05:17.991Z,96312.97
2023-01-07T15:08:15.924Z,96310.75
2023-01-07T15:11:01.821Z,96318.25
2023-01-07T15:13:48.251Z,96314.34
2023-01-07T15:16:16.116Z,96309.09
2023-01-07T15:18:49.556Z,96309.88
2023-01-07T15:21:35.870Z,96312.78
2023-01-07T15:24:18.816Z,96313.03
2023-01-07T15:26:59.576Z,96313.13
2023-01-07T15:29:46.663Z,96303.94
2023-01-07T15:32:19.026Z,96301.13
2023-01-07T15:34:45.597Z,96301.13
2023-01-07T15:37:14.341Z,96307.50
2023-01-07T15:39:45.224Z,96310.59
2023-01-07T15:42:16.107Z,96307.03
2023-01-07T15:44:43.177Z,96313.00
2023-01-07T15:47:33.434Z,96301.00
2023-01-07T15:50:27.886Z,96312.84
2023-01-07T15:53:00.434Z,96302.09
2023-01-07T15:55:26.899Z,96298.25
2023-01-07T15:58:01.769Z,96299.69
2023-01-07T16:00:28.549Z,96307.59
2023-01-07T16:02:55.960Z,96306.41
2023-01-07T16:05:25.181Z,96306.47
2023-01-07T16:07:59.228Z,96302.06
2023-01-07T16:10:32.370Z,96311.50
2023-01-07T16:13:19.092Z,96306.41
2023-01-07T16:15:45.625Z,96314.97
2023-01-07T16:18:13.387Z,96305.28
2023-01-07T16:20:48.969Z,96311.66
2023-01-07T16:23:25.195Z,96311.94
2023-01-07T16:26:06.657Z,96312.69
2023-01-07T16:28:38.336Z,96318.09
2023-01-07T16:31:09.158Z,96318.59
2023-01-07T16:33:38.284Z,96308.66
2023-01-07T16:36:30.366Z,96320.06
2023-01-07T16:39:00.648Z,96317.91
2023-01-07T16:41:29.399Z,96321.88
2023-01-07T16:43:56.723Z,96322.13
2023-01-07T16:46:43.007Z,96320.78
2023-01-07T16:49:18.508Z,96323.03
2023-01-07T16:51:46.388Z,96324.75
2023-01-07T16:54:25.031Z,96322.94
2023-01-07T16:56:52.631Z,96331.00
2023-01-07T16:59:21.147Z,96325.44
2023-01-07T17:01:48.848Z,96320.78
2023-01-07T17:04:20.536Z,96314.75
2023-01-07T17:06:47.716Z,96320.50
2023-01-07T17:09:27.184Z,96321.50
2023-01-07T17:11:54.817Z,96329.13
2023-01-07T17:14:33.418Z,96340.06
2023-01-07T17:17:00.462Z,96335.75
2023-01-07T17:19:33.721Z,96337.66
2023-01-07T17:22:01.553Z,96338.09
2023-01-07T17:24:28.533Z,96335.84
2023-01-07T17:26:58.250Z,96328.16
2023-01-07T17:29:32.016Z,96328.06
2023-01-07T17:31:58.845Z,96326.88
2023-01-07T17:34:25.564Z,96325.19
2023-01-07T17:36:52.144Z,96327.69
2023-01-07T17:39:18.672Z,96327.97
2023-01-07T17:42:03.700Z,96320.63
2023-01-07T17:44:32.907Z,96319.00
2023-01-07T17:46:59.360Z,96309.59
2023-01-07T17:49:25.896Z,96310.38
2023-01-07T17:51:54.630Z,96304.94
2023-01-07T17:54:25.415Z,96300.72
2023-01-07T17:56:52.566Z,96308.25
2023-01-07T17:59:22.097Z,96304.13
2023-01-07T18:01:50.895Z,96299.66
2023-01-07T18:04:18.123Z,96303.84
2023-01-07T18:06:44.902Z,96301.16
2023-01-07T18:09:13.608Z,96292.38
2023-01-07T18:12:01.778Z,96293.53
2023-01-07T18:14:28.366Z,96292.75
2023-01-07T18:16:54.788Z,96289.41
2023-01-07T18:19:21.335Z,96293.53
2023-01-07T18:21:47.767Z,96285.03
2023-01-07T18:24:16.610Z,96297.06
2023-01-07T18:26:43.666Z,96297.72
2023-01-07T18:29:11.115Z,96293.94
2023-01-07T18:31:42.953Z,96301.38
2023-01-07T18:34:13.637Z,96295.00
2023-01-07T18:36:40.381Z,96295.28
2023-01-07T18:39:09.877Z,96286.41
2023-01-07T18:41:39.371Z,96289.53
2023-01-07T18:44:06.700Z,96298.25
2023-01-07T18:46:33.440Z,96296.28
2023-01-07T18:49:00.330Z,96285.22
2023-01-07T18:51:26.874Z,96286.06
2023-01-07T18:53:53.330Z,96288.75
2023-01-07T18:56:20.514Z,96285.19
2023-01-07T18:58:47.008Z,96291.13
2023-01-07T19:01:13.617Z,96284.84
2023-01-07T19:03:40.343Z,96279.88
2023-01-07T19:06:09.120Z,96289.47
2023-01-07T19:08:35.985Z,96280.66
2023-01-07T19:11:09.053Z,96288.69
2023-01-07T19:13:36.656Z,96295.84
2023-01-07T19:16:08.294Z,96284.38
2023-01-07T19:18:34.877Z,96289.56
2023-01-07T19:21:10.496Z,96282.03
2023-01-07T19:23:38.029Z,96290.66
2023-01-07T19:26:07.736Z,96307.38
2023-01-07T19:28:35.041Z,96311.31
2023-01-07T19:31:08.015Z,96307.75
2023-01-07T19:33:36.038Z,96294.44
2023-01-07T19:36:11.497Z,96297.34
2023-01-07T19:38:44.731Z,96297.97
2023-01-07T19:41:14.063Z,96294.56
2023-01-07T19:43:41.207Z,96296.00
2023-01-07T19:46:08.291Z,96293.56
2023-01-07T19:48:35.569Z,96288.78
2023-01-07T19:51:04.382Z,96296.75
2023-01-07T19:53:32.180Z,96285.72
2023-01-07T19:56:03.864Z,96283.28
2023-01-07T19:58:30.295Z,96279.72
2023-01-07T20:01:02.547Z,96276.13
2023-01-07T20:03:34.189Z,96269.78
2023-01-07T20:06:06.900Z,96286.88
2023-01-07T20:08:34.136Z,96275.97
2023-01-07T20:11:00.948Z,96278.44
2023-01-07T20:13:30.246Z,96277.63
2023-01-07T20:15:56.723Z,96270.91
2023-01-07T20:18:23.345Z,96279.03
2023-01-07T20:20:57.563Z,96271.00
2023-01-07T20:23:25.104Z,96263.69
2023-01-07T20:25:52.085Z,96266.63
2023-01-07T20:28:18.901Z,96256.19
2023-01-07T20:30:45.631Z,96266.75
2023-01-07T20:33:12.161Z,96263.56
2023-01-07T20:35:39.722Z,96268.72
2023-01-07T20:38:09.595Z,96265.25
2023-01-07T20:40:42.368Z,96249.75
2023-01-07T20:43:09.436Z,96249.88
2023-01-07T20:45:38.420Z,96236.97
2023-01-07T20:48:07.541Z,96247.44
2023-01-07T20:50:36.369Z,96242.22
2023-01-07T20:53:03.333Z,96241.44
2023-01-07T20:55:29.950Z,96229.84
2023-01-07T20:57:56.598Z,96212.16
2023-01-07T21:00:25.587Z,96208.66
2023-01-07T21:02:52.154Z,96208.78
2023-01-07T21:05:21.057Z,96193.00
2023-01-07T21:07:48.298Z,96202.97
2023-01-07T21:10:16.692Z,96181.47
2023-01-07T21:12:43.435Z,96175.88
2023-01-07T21:15:13.061Z,96172.31
2023-01-07T21:17:41.919Z,96165.78
2023-01-07T21:20:12.297Z,96175.28
2023-01-07T21:22:38.980Z,96170.03
2023-01-07T21:25:10.253Z,96152.34
2023-01-07T21:27:38.273Z,96151.97
2023-01-07T21:30:07.791Z,96170.25
2023-01-07T21:32:35.550Z,96158.72
2023-01-07T21:35:03.043Z,96164.72
2023-01-07T21:37:29.629Z,96173.59
2023-01-07T21:39:56.180Z,96141.47
2023-01-07T21:42:22.687Z,96169.47
2023-01-07T21:44:49.220Z,96144.69
2023-01-07T21:47:15.708Z,96149.50
2023-01-07T21:49:42.863Z,96151.94
2023-01-07T21:52:09.620Z,96166.00
2023-01-07T21:54:36.933Z,96165.84
2023-01-07T21:57:03.643Z,96134.66
2023-01-07T21:59:30.277Z,96143.16
2023-01-07T22:01:56.959Z,96120.72
2023-01-07T22:04:23.602Z,96132.69
2023-01-07T22:06:50.581Z,96134.38
2023-01-07T22:09:17.433Z,96142.88
2023-01-07T22:11:44.857Z,96150.75
2023-01-07T22:14:17.940Z,96131.06
2023-01-07T22:16:47.432Z,96128.13
2023-01-07T22:19:15.367Z,96120.50
2023-01-07T22:21:41.954Z,96107.94
2023-01-07T22:24:09.267Z,96131.94
2023-01-07T22:26:36.924Z,96118.03
2023-01-07T22:29:07.715Z,96122.81
2023-01-07T22:31:36.810Z,96127.56
2023-01-07T22:34:05.822Z,96117.81
2023-01-07T22:36:40.836Z,96113.97
2023-01-07T22:39:17.285Z,96111.19
2023-01-07T22:41:44.108Z,96113.81
2023-01-07T22:44:14.654Z,96096.06
2023-01-07T22:46:44.324Z,96104.50
2023-01-07T22:49:10.843Z,96095.03
2023-01-07T22:51:46.704Z,96091.97
2023-01-07T22:54:14.726Z,96083.66
2023-01-07T22:56:42.301Z,96094.69
2023-01-07T22:59:09.368Z,96068.78
2023-01-07T23:01:37.927Z,96097.53
2023-01-07T23:04:05.479Z,96040.69
2023-01-07T23:06:32.200Z,96071.06
2023-01-07T23:08:58.671Z,96070.03
2023-01-07T23:11:43.646Z,96083.84
2023-01-07T23:14:10.297Z,96073.50
2023-01-07T23:16:37.365Z,96063.13
2023-01-07T23:19:04.159Z,96050.63
2023-01-07T23:21:34.374Z,96067.88
2023-01-07T23:24:01.346Z,96067.44
2023-01-07T23:26:28.001Z,96054.47
2023-01-07T23:28:54.581Z,96059.59
2023-01-07T23:31:21.140Z,96057.06
2023-01-07T23:33:47.803Z,96050.59
2023-01-07T23:36:14.316Z,96027.72
2023-01-07T23:38:40.891Z,96002.66
2023-01-07T23:41:09.854Z,96017.75
2023-01-07T23:43:37.601Z,96001.53
2023-01-07T23:46:06.832Z,96014.38
2023-01-07T23:48:35.851Z,96002.75
2023-01-07T23:51:17.339Z,96012.16
2023-01-07T23:53:45.035Z,95991.47
2023-01-07T23:56:12.625Z,96004.31
2023-01-07T23:58:39.349Z,95991.94
